createdAt,value
2022-09-01T00:00:29.116Z,62.88
2022-09-01T00:02:57.452Z,62.88
2022-09-01T00:05:26.052Z,62.21
2022-09-01T00:07:54.280Z,62.45
2022-09-01T00:10:22.789Z,60.86
2022-09-01T00:12:50.995Z,61.63
2022-09-01T00:15:19.176Z,60.76
2022-09-01T00:17:47.418Z,61.76
2022-09-01T00:20:20.077Z,61.94
2022-09-01T00:22:49.274Z,62.01
2022-09-01T00:25:20.226Z,61.51
2022-09-01T00:27:50.332Z,61.25
2022-09-01T00:30:19.343Z,62.21
2022-09-01T00:32:47.732Z,61.25
2022-09-01T00:35:18.819Z,61.48
2022-09-01T00:37:47.028Z,60.78
2022-09-01T00:40:18.021Z,62.04
2022-09-01T00:42:48.289Z,61.15
2022-09-01T00:45:16.887Z,62.52
2022-09-01T00:47:45.553Z,60.55
2022-09-01T00:50:19.522Z,60.82
2022-09-01T00:52:55.451Z,60.84
2022-09-01T00:55:29.736Z,60.42
2022-09-01T00:58:03.984Z,61.32
2022-09-01T01:00:41.970Z,60.12
2022-09-01T01:03:12.364Z,60.41
2022-09-01T01:05:48.895Z,60.61
2022-09-01T01:08:20.002Z,60.70
2022-09-01T01:10:48.338Z,60.16
2022-09-01T01:13:17.407Z,59.41
2022-09-01T01:15:45.791Z,61.07
2022-09-01T01:18:22.988Z,60.34
2022-09-01T01:21:24.572Z,61.03
2022-09-01T01:24:20.827Z,60.70
2022-09-01T01:26:50.288Z,60.43
2022-09-01T01:29:19.047Z,62.80
2022-09-01T01:31:49.777Z,62.90
2022-09-01T01:34:19.857Z,62.75
2022-09-01T01:36:49.039Z,63.12
2022-09-01T01:39:25.592Z,62.89
2022-09-01T01:41:57.982Z,61.36
2022-09-01T01:44:31.129Z,60.94
2022-09-01T01:47:05.412Z,61.43
2022-09-01T01:49:36.443Z,62.11
2022-09-01T01:52:04.732Z,61.96
2022-09-01T01:54:37.573Z,61.93
2022-09-01T01:57:05.860Z,61.56
2022-09-01T01:59:34.841Z,61.58
2022-09-01T02:02:04.080Z,61.74
2022-09-01T02:04:34.600Z,60.99
2022-09-01T02:07:14.383Z,62.26
2022-09-01T02:09:46.098Z,63.05
2022-09-01T02:12:19.706Z,62.40
2022-09-01T02:14:48.666Z,63.17
2022-09-01T02:17:17.846Z,62.16
2022-09-01T02:19:47.489Z,62.21
2022-09-01T02:22:15.656Z,62.05
2022-09-01T02:24:49.247Z,61.82
2022-09-01T02:27:25.908Z,62.23
2022-09-01T02:29:55.730Z,63.49
2022-09-01T02:32:24.480Z,62.44
2022-09-01T02:34:53.962Z,61.79
2022-09-01T02:37:25.346Z,63.29
2022-09-01T02:39:53.526Z,63.51
2022-09-01T02:42:27.550Z,63.22
2022-09-01T02:44:56.894Z,63.78
2022-09-01T02:47:29.693Z,66.91
2022-09-01T02:50:01.128Z,69.82
2022-09-01T02:52:35.608Z,72.02
2022-09-01T02:55:05.081Z,71.37
2022-09-01T02:57:34.614Z,71.64
2022-09-01T03:00:20.783Z,70.95
2022-09-01T03:02:53.711Z,68.85
2022-09-01T03:05:25.491Z,69.14
2022-09-01T03:07:59.249Z,69.82
2022-09-01T03:10:35.520Z,67.42
2022-09-01T03:13:12.251Z,66.94
2022-09-01T03:15:41.943Z,65.85
2022-09-01T03:18:13.589Z,67.62
2022-09-01T03:20:46.593Z,68.74
2022-09-01T03:23:19.415Z,70.78
2022-09-01T03:25:49.345Z,68.83
2022-09-01T03:28:17.954Z,68.40
2022-09-01T03:30:50.922Z,67.84
2022-09-01T03:33:23.257Z,69.37
2022-09-01T03:35:51.803Z,68.62
2022-09-01T03:38:23.058Z,68.71
2022-09-01T03:41:04.500Z,69.11
2022-09-01T03:43:35.708Z,68.33
2022-09-01T03:46:04.558Z,68.19
2022-09-01T03:48:33.251Z,68.86
2022-09-01T03:51:02.897Z,68.97
2022-09-01T03:53:37.716Z,67.92
2022-09-01T03:56:07.389Z,69.16
2022-09-01T03:58:35.858Z,68.38
2022-09-01T04:01:05.209Z,67.67
2022-09-01T04:03:39.770Z,68.12
2022-09-01T04:06:10.741Z,67.85
2022-09-01T04:08:39.576Z,68.71
2022-09-01T04:11:18.839Z,71.83
2022-09-01T04:13:50.065Z,71.28
2022-09-01T04:16:40.487Z,75.45
2022-09-01T04:19:25.386Z,72.58
2022-09-01T04:22:00.307Z,71.93
2022-09-01T04:24:34.914Z,71.03
2022-09-01T04:27:04.078Z,71.58
2022-09-01T04:29:36.064Z,72.21
2022-09-01T04:32:13.171Z,69.94
2022-09-01T04:34:44.199Z,68.91
2022-09-01T04:37:22.093Z,71.47
2022-09-01T04:40:04.037Z,71.02
2022-09-01T04:42:33.115Z,69.62
2022-09-01T04:45:10.268Z,69.80
2022-09-01T04:47:42.368Z,72.86
2022-09-01T04:50:14.870Z,74.87
2022-09-01T04:52:47.951Z,71.67
2022-09-01T04:55:31.087Z,72.82
2022-09-01T04:58:08.318Z,72.38
2022-09-01T05:00:40.513Z,73.37
2022-09-01T05:03:10.328Z,76.37
2022-09-01T05:06:02.604Z,77.42
2022-09-01T05:08:32.639Z,75.45
2022-09-01T05:11:07.598Z,74.59
2022-09-01T05:13:39.844Z,73.34
2022-09-01T05:16:13.325Z,73.30
2022-09-01T05:18:47.618Z,73.97
2022-09-01T05:21:22.433Z,70.96
2022-09-01T05:23:51.912Z,71.55
2022-09-01T05:26:26.306Z,72.09
2022-09-01T05:29:00.734Z,72.31
2022-09-01T05:31:38.003Z,74.63
2022-09-01T05:34:09.715Z,72.97
2022-09-01T05:36:46.057Z,71.83
2022-09-01T05:39:14.907Z,73.03
2022-09-01T05:41:43.870Z,72.74
2022-09-01T05:44:14.243Z,72.32
2022-09-01T05:46:44.593Z,73.01
2022-09-01T05:49:16.276Z,72.96
2022-09-01T05:51:50.291Z,72.54
2022-09-01T05:54:25.636Z,71.91
2022-09-01T05:57:12.690Z,72.26
2022-09-01T05:59:53.920Z,72.31
2022-09-01T06:02:28.860Z,72.29
2022-09-01T06:05:00.376Z,73.39
2022-09-01T06:07:35.853Z,73.33
2022-09-01T06:10:05.467Z,73.41
2022-09-01T06:12:34.492Z,73.74
2022-09-01T06:15:02.818Z,73.76
2022-09-01T06:17:34.645Z,73.16
2022-09-01T06:20:10.697Z,74.17
2022-09-01T06:22:41.251Z,73.41
2022-09-01T06:25:10.331Z,74.84
2022-09-01T06:27:42.736Z,74.97
2022-09-01T06:30:23.695Z,74.93
2022-09-01T06:33:05.752Z,73.06
2022-09-01T06:35:35.721Z,73.18
2022-09-01T06:38:06.963Z,73.20
2022-09-01T06:40:46.595Z,71.91
2022-09-01T06:43:16.378Z,71.24
2022-09-01T06:45:54.966Z,71.58
2022-09-01T06:48:25.129Z,71.53
2022-09-01T06:51:21.370Z,71.01
2022-09-01T06:53:57.103Z,71.81
2022-09-01T06:56:34.066Z,71.27
2022-09-01T06:59:13.144Z,70.83
2022-09-01T07:01:42.058Z,70.20
2022-09-01T07:04:13.597Z,70.63
2022-09-01T07:10:21.357Z,70.47
2022-09-01T07:13:08.953Z,70.00
2022-09-01T07:18:37.574Z,68.62
2022-09-01T07:21:36.879Z,67.76
2022-09-01T07:24:13.426Z,67.30
2022-09-01T07:26:56.089Z,67.96
2022-09-01T07:29:25.925Z,67.22
2022-09-01T07:34:47.531Z,67.05
2022-09-01T07:41:44.231Z,70.53
2022-09-01T07:43:37.172Z,65.76
2022-09-01T07:49:29.596Z,64.63
2022-09-01T07:51:51.820Z,63.81
2022-09-01T07:54:24.048Z,62.16
2022-09-01T07:56:55.519Z,62.96
2022-09-01T07:59:24.627Z,62.98
2022-09-01T08:02:05.366Z,63.70
2022-09-01T08:04:34.563Z,60.95
2022-09-01T08:07:03.380Z,60.49
2022-09-01T08:09:37.994Z,59.30
2022-09-01T08:12:08.876Z,60.93
2022-09-01T08:15:12.727Z,59.76
2022-09-01T08:17:57.592Z,59.54
2022-09-01T08:20:28.370Z,58.73
2022-09-01T08:23:01.741Z,59.53
2022-09-01T08:25:37.194Z,59.80
2022-09-01T08:28:06.295Z,60.10
2022-09-01T08:30:35.990Z,59.93
2022-09-01T08:33:12.413Z,59.47
2022-09-01T08:35:49.465Z,56.81
2022-09-01T08:38:20.232Z,55.96
2022-09-01T08:40:57.476Z,55.22
2022-09-01T08:43:51.776Z,55.33
2022-09-01T08:46:30.694Z,54.25
2022-09-01T08:49:24.699Z,52.47
2022-09-01T08:52:27.845Z,52.41
2022-09-01T08:55:06.011Z,49.88
2022-09-01T08:57:40.575Z,50.82
2022-09-01T09:00:39.582Z,49.95
2022-09-01T09:03:43.827Z,48.75
2022-09-01T09:06:37.709Z,49.57
2022-09-01T09:09:09.451Z,51.30
2022-09-01T09:11:51.115Z,50.17
2022-09-01T09:15:21.964Z,49.38
2022-09-01T09:18:20.088Z,48.73
2022-09-01T09:21:30.498Z,46.94
2022-09-01T09:24:07.429Z,44.68
2022-09-01T09:26:43.216Z,46.02
2022-09-01T09:29:11.661Z,45.86
2022-09-01T09:31:50.482Z,45.72
2022-09-01T09:34:33.330Z,43.82
2022-09-01T09:37:30.141Z,44.39
2022-09-01T09:40:16.090Z,43.03
2022-09-01T09:42:55.454Z,43.05
2022-09-01T09:45:42.003Z,42.28
2022-09-01T09:48:30.399Z,41.75
2022-09-01T09:51:19.855Z,41.49
2022-09-01T09:53:49.011Z,39.41
2022-09-01T09:56:25.450Z,38.55
2022-09-01T09:58:53.830Z,41.33
2022-09-01T10:01:24.147Z,43.85
2022-09-01T10:04:01.360Z,43.73
2022-09-01T10:06:46.809Z,42.61
2022-09-01T10:09:36.491Z,40.02
2022-09-01T10:12:07.067Z,41.35
2022-09-01T10:14:53.380Z,39.50
2022-09-01T10:17:47.287Z,39.23
2022-09-01T10:20:25.453Z,37.84
2022-09-01T10:22:54.182Z,37.76
2022-09-01T10:25:32.244Z,37.02
2022-09-01T10:28:21.437Z,38.03
2022-09-01T10:30:53.921Z,37.13
2022-09-01T10:33:23.300Z,37.31
2022-09-01T10:35:55.259Z,38.12
2022-09-01T10:38:31.147Z,39.17
2022-09-01T10:41:15.011Z,41.90
2022-09-01T10:43:51.439Z,39.60
2022-09-01T10:46:38.632Z,39.62
2022-09-01T10:49:28.108Z,39.08
2022-09-01T10:52:03.158Z,39.08
2022-09-01T10:54:51.008Z,37.03
2022-09-01T10:57:41.898Z,37.13
2022-09-01T11:00:36.140Z,37.34
2022-09-01T11:03:31.485Z,34.10
2022-09-01T11:06:13.302Z,36.13
2022-09-01T11:09:03.083Z,35.26
2022-09-01T11:11:46.911Z,35.13
2022-09-01T11:14:26.568Z,35.82
2022-09-01T11:17:15.377Z,38.99
2022-09-01T11:20:29.753Z,36.42
2022-09-01T11:23:23.957Z,36.38
2022-09-01T11:26:20.920Z,36.11
2022-09-01T11:28:50.127Z,34.92
2022-09-01T11:31:30.634Z,38.29
2022-09-01T11:34:20.703Z,37.54
2022-09-01T11:37:00.334Z,41.36
2022-09-01T11:39:42.132Z,39.18
2022-09-01T11:42:39.638Z,40.59
2022-09-01T11:45:33.963Z,39.64
2022-09-01T11:48:10.903Z,41.99
2022-09-01T11:50:42.383Z,39.97
2022-09-01T11:53:20.399Z,40.05
2022-09-01T11:55:52.592Z,38.54
2022-09-01T11:58:30.875Z,40.37
2022-09-01T12:01:15.891Z,38.83
2022-09-01T12:03:47.302Z,38.91
2022-09-01T12:06:25.093Z,38.76
2022-09-01T12:09:05.277Z,38.64
2022-09-01T12:11:36.032Z,40.44
2022-09-01T12:14:12.108Z,41.47
2022-09-01T12:16:42.629Z,42.09
2022-09-01T12:19:27.419Z,42.50
2022-09-01T12:22:15.068Z,42.00
2022-09-01T12:24:50.885Z,40.21
2022-09-01T12:27:23.351Z,39.38
2022-09-01T12:29:52.180Z,40.58
2022-09-01T12:32:21.290Z,39.43
2022-09-01T12:35:10.860Z,39.40
2022-09-01T12:37:39.871Z,38.20
2022-09-01T12:40:30.968Z,38.84
2022-09-01T12:42:59.333Z,41.64
2022-09-01T12:45:47.858Z,39.87
2022-09-01T12:48:35.669Z,39.38
2022-09-01T12:51:24.528Z,39.83
2022-09-01T12:54:04.870Z,40.33
2022-09-01T12:56:36.265Z,42.82
2022-09-01T12:59:36.373Z,41.95
2022-09-01T13:02:44.388Z,42.21
2022-09-01T13:05:41.833Z,40.20
2022-09-01T13:08:16.679Z,39.59
2022-09-01T13:10:55.647Z,39.47
2022-09-01T13:13:26.819Z,39.38
2022-09-01T13:16:01.602Z,38.45
2022-09-01T13:18:31.276Z,40.14
2022-09-01T13:21:01.005Z,40.95
2022-09-01T13:23:29.700Z,39.87
2022-09-01T13:25:59.404Z,40.81
2022-09-01T13:28:28.301Z,40.57
2022-09-01T13:34:10.755Z,38.73
2022-09-01T13:36:46.209Z,36.92
2022-09-01T13:39:16.363Z,36.93
2022-09-01T13:41:44.600Z,37.24
2022-09-01T13:44:13.067Z,35.08
2022-09-01T13:50:06.617Z,38.19
2022-09-01T13:52:19.246Z,36.46
2022-09-01T13:54:47.860Z,36.92
2022-09-01T13:57:16.711Z,35.75
2022-09-01T13:59:45.091Z,37.17
2022-09-01T14:02:13.343Z,39.09
2022-09-01T14:04:41.865Z,37.05
2022-09-01T14:07:11.092Z,35.98
2022-09-01T14:09:39.343Z,35.97
2022-09-01T14:12:07.717Z,37.48
2022-09-01T14:17:24.109Z,36.86
2022-09-01T14:19:52.568Z,36.80
2022-09-01T14:22:21.209Z,36.23
2022-09-01T14:24:49.401Z,35.43
2022-09-01T14:27:17.590Z,35.09
2022-09-01T14:29:50.803Z,36.46
2022-09-01T14:32:26.958Z,37.11
2022-09-01T14:34:57.137Z,36.07
2022-09-01T14:37:25.413Z,36.90
2022-09-01T14:39:57.427Z,38.08
2022-09-01T14:42:28.727Z,37.23
2022-09-01T14:44:56.968Z,36.48
2022-09-01T14:47:25.962Z,37.46
2022-09-01T14:49:54.907Z,36.75
2022-09-01T14:52:23.535Z,36.72
2022-09-01T14:54:52.023Z,35.64
2022-09-01T14:57:29.449Z,37.24
2022-09-01T15:00:00.891Z,36.57
2022-09-01T15:02:29.488Z,37.25
2022-09-01T15:04:58.213Z,36.34
2022-09-01T15:07:26.706Z,36.95
2022-09-01T15:09:55.236Z,36.85
2022-09-01T15:12:24.336Z,36.76
2022-09-01T15:14:52.972Z,36.86
2022-09-01T15:17:21.580Z,40.03
2022-09-01T15:19:50.250Z,38.11
2022-09-01T15:22:19.057Z,38.13
2022-09-01T15:24:48.331Z,37.39
2022-09-01T15:27:16.780Z,37.24
2022-09-01T15:29:48.123Z,38.71
2022-09-01T15:32:27.387Z,37.67
2022-09-01T15:34:57.295Z,38.70
2022-09-01T15:37:26.628Z,37.81
2022-09-01T15:39:55.469Z,38.66
2022-09-01T15:42:24.566Z,38.61
2022-09-01T15:44:53.569Z,39.50
2022-09-01T15:47:23.944Z,38.09
2022-09-01T15:49:54.508Z,38.13
2022-09-01T15:52:25.309Z,39.02
2022-09-01T15:54:54.239Z,37.66
2022-09-01T15:57:22.944Z,37.36
2022-09-01T15:59:51.583Z,37.53
2022-09-01T16:02:23.684Z,37.94
2022-09-01T16:04:52.349Z,38.92
2022-09-01T16:07:20.971Z,40.67
2022-09-01T16:09:49.498Z,41.36
2022-09-01T16:12:20.385Z,41.47
2022-09-01T16:14:49.617Z,41.24
2022-09-01T16:17:47.074Z,41.29
2022-09-01T16:20:45.142Z,41.29
2022-09-01T16:23:19.295Z,40.95
2022-09-01T16:25:49.220Z,41.90
2022-09-01T16:28:36.289Z,40.31
2022-09-01T16:31:21.279Z,41.49
2022-09-01T16:33:56.266Z,40.45
2022-09-01T16:36:52.296Z,41.54
2022-09-01T16:39:32.489Z,41.51
2022-09-01T16:42:06.527Z,41.31
2022-09-01T16:45:19.527Z,41.61
2022-09-01T16:48:04.022Z,40.93
2022-09-01T16:50:37.707Z,43.57
2022-09-01T16:53:22.651Z,42.77
2022-09-01T16:56:14.581Z,42.40
2022-09-01T16:59:11.990Z,42.19
2022-09-01T17:02:17.527Z,42.50
2022-09-01T17:05:26.178Z,42.67
2022-09-01T17:08:31.236Z,42.27
2022-09-01T17:11:16.673Z,41.81
2022-09-01T17:13:52.199Z,41.96
2022-09-01T17:16:42.500Z,41.23
2022-09-01T17:19:18.833Z,41.31
2022-09-01T17:21:54.000Z,41.56
2022-09-01T17:24:38.800Z,40.97
2022-09-01T17:27:35.561Z,41.16
2022-09-01T17:30:07.248Z,41.62
2022-09-01T17:33:12.145Z,41.65
2022-09-01T17:36:18.715Z,42.87
2022-09-01T17:38:55.853Z,42.88
2022-09-01T17:41:55.891Z,42.61
2022-09-01T17:44:41.168Z,42.92
2022-09-01T17:47:56.337Z,43.68
2022-09-01T17:51:11.571Z,43.22
2022-09-01T17:54:27.457Z,43.10
2022-09-01T17:56:58.593Z,43.52
2022-09-01T18:00:04.768Z,44.45
2022-09-01T18:03:19.167Z,43.97
2022-09-01T18:06:05.037Z,43.80
2022-09-01T18:08:42.042Z,43.78
2022-09-01T18:11:40.315Z,43.69
2022-09-01T18:14:49.269Z,44.39
2022-09-01T18:17:46.123Z,44.29
2022-09-01T18:20:28.019Z,44.33
2022-09-01T18:23:08.557Z,43.83
2022-09-01T18:25:48.034Z,43.97
2022-09-01T18:28:16.867Z,44.71
2022-09-01T18:31:06.646Z,44.60
2022-09-01T18:33:50.054Z,45.59
2022-09-01T18:36:45.589Z,45.38
2022-09-01T18:40:11.517Z,46.32
2022-09-01T18:42:48.277Z,46.26
2022-09-01T18:45:38.728Z,47.36
2022-09-01T18:48:48.097Z,46.95
2022-09-01T18:51:25.565Z,46.52
2022-09-01T18:54:16.153Z,46.72
2022-09-01T18:57:04.916Z,46.59
2022-09-01T18:59:54.792Z,46.61
2022-09-01T19:02:41.790Z,48.03
2022-09-01T19:05:33.579Z,49.64
2022-09-01T19:08:42.442Z,48.61
2022-09-01T19:11:43.431Z,49.64
2022-09-01T19:14:42.021Z,47.95
2022-09-01T19:17:41.103Z,48.34
2022-09-01T19:20:19.478Z,48.29
2022-09-01T19:23:01.259Z,49.02
2022-09-01T19:25:38.867Z,49.70
2022-09-01T19:28:44.019Z,49.49
2022-09-01T19:31:34.628Z,50.62
2022-09-01T19:34:17.872Z,50.72
2022-09-01T19:36:55.354Z,50.87
2022-09-01T19:39:29.699Z,51.53
2022-09-01T19:42:07.228Z,51.13
2022-09-01T19:44:53.384Z,51.61
2022-09-01T19:48:01.844Z,52.57
2022-09-01T19:50:54.375Z,52.06
2022-09-01T19:53:56.332Z,51.41
2022-09-01T19:56:31.455Z,51.98
2022-09-01T19:59:27.271Z,52.29
2022-09-01T20:02:02.338Z,52.38
2022-09-01T20:04:46.253Z,52.16
2022-09-01T20:07:31.818Z,52.17
2022-09-01T20:10:21.706Z,52.43
2022-09-01T20:13:30.553Z,52.40
2022-09-01T20:16:17.713Z,52.45
2022-09-01T20:18:58.303Z,52.48
2022-09-01T20:21:26.659Z,53.15
2022-09-01T20:24:08.361Z,52.99
2022-09-01T20:26:59.603Z,52.80
2022-09-01T20:30:07.481Z,53.21
2022-09-01T20:33:03.871Z,53.52
2022-09-01T20:36:02.090Z,53.00
2022-09-01T20:39:28.278Z,53.97
2022-09-01T20:42:19.965Z,54.00
2022-09-01T20:44:57.385Z,54.86
2022-09-01T20:47:30.862Z,55.06
2022-09-01T20:50:11.894Z,54.06
2022-09-01T20:52:52.022Z,54.45
2022-09-01T20:55:37.621Z,54.59
2022-09-01T20:58:33.038Z,54.84
2022-09-01T21:01:23.956Z,55.93
2022-09-01T21:04:11.717Z,55.21
2022-09-01T21:06:42.751Z,55.47
2022-09-01T21:09:28.553Z,55.46
2022-09-01T21:12:28.184Z,54.53
2022-09-01T21:15:04.646Z,54.82
2022-09-01T21:18:26.909Z,55.23
2022-09-01T21:21:43.070Z,55.46
2022-09-01T21:24:11.361Z,55.10
2022-09-01T21:26:40.354Z,55.86
2022-09-01T21:29:46.993Z,55.49
2022-09-01T21:32:16.518Z,55.40
2022-09-01T21:34:46.736Z,55.12
2022-09-01T21:37:15.238Z,56.31
2022-09-01T21:39:43.620Z,56.14
2022-09-01T21:42:13.646Z,56.45
2022-09-01T21:44:42.516Z,55.92
2022-09-01T21:47:12.175Z,57.44
2022-09-01T21:49:40.822Z,56.63
2022-09-01T21:52:09.697Z,57.72
2022-09-01T21:54:37.955Z,56.44
2022-09-01T21:57:06.293Z,56.71
2022-09-01T21:59:34.562Z,56.64
2022-09-01T22:02:03.357Z,57.27
2022-09-01T22:04:33.152Z,55.75
2022-09-01T22:07:01.792Z,58.61
2022-09-01T22:09:30.249Z,57.51
2022-09-01T22:11:58.461Z,59.38
2022-09-01T22:14:27.917Z,58.47
2022-09-01T22:16:56.988Z,58.75
2022-09-01T22:19:26.515Z,59.62
2022-09-01T22:21:55.059Z,59.21
2022-09-01T22:24:23.281Z,59.02
2022-09-01T22:26:51.633Z,59.39
2022-09-01T22:29:19.892Z,59.52
2022-09-01T22:31:48.123Z,59.00
2022-09-01T22:34:16.328Z,59.75
2022-09-01T22:36:49.086Z,58.68
2022-09-01T22:39:18.933Z,59.18
2022-09-01T22:41:48.382Z,57.37
2022-09-01T22:44:16.592Z,59.25
2022-09-01T22:46:45.503Z,59.88
2022-09-01T22:49:13.731Z,60.40
2022-09-01T22:51:44.203Z,60.30
2022-09-01T22:54:12.553Z,61.51
2022-09-01T22:56:42.293Z,59.09
2022-09-01T22:59:14.772Z,60.47
2022-09-01T23:01:47.625Z,60.72
2022-09-01T23:04:17.670Z,58.59
2022-09-01T23:06:50.818Z,59.09
2022-09-01T23:09:20.087Z,61.28
2022-09-01T23:11:49.626Z,60.67
2022-09-01T23:14:18.643Z,61.01
2022-09-01T23:16:47.669Z,62.24
2022-09-01T23:19:21.482Z,62.11
2022-09-01T23:21:51.382Z,62.37
2022-09-01T23:24:20.809Z,62.18
2022-09-01T23:26:49.908Z,61.31
2022-09-01T23:29:19.721Z,61.96
2022-09-01T23:31:48.080Z,61.37
2022-09-01T23:34:17.015Z,61.31
2022-09-01T23:36:45.668Z,60.41
2022-09-01T23:39:14.289Z,61.97
2022-09-01T23:41:42.820Z,60.67
2022-09-01T23:44:11.961Z,61.07
2022-09-01T23:46:44.783Z,62.96
2022-09-01T23:49:16.444Z,61.80
2022-09-01T23:51:47.579Z,63.33
2022-09-01T23:54:16.772Z,63.89
2022-09-01T23:56:46.118Z,61.41
2022-09-01T23:59:15.860Z,64.48
